Time;durP1;ratioP1;P1;durP2;ratioP2;P2;SDS_P1;SDS_P2;PMS_P1;PMS_P2;Temp;Humidity;BMP_temperature;BMP_pressure;BME280_temperature;BME280_humidity;BME280_pressure;Samples;Min_cycle;Max_cycle;Signal;HPM_P1;HPM_P2
2021/04/28 00:02:23;;;;;;;6.93;4.43;;;4.40;57.80;;;;;;5041296;28;20100;-71
2021/04/28 00:04:48;;;;;;;11.38;5.15;;;4.40;58.10;;;;;;5043286;28;20396;-71
2021/04/28 00:07:17;;;;;;;9.98;4.63;;;4.30;57.90;;;;;;5050642;28;20677;-71
2021/04/28 00:09:42;;;;;;;13.95;5.07;;;4.30;58.00;;;;;;5024236;28;20112;-70
2021/04/28 00:12:09;;;;;;;7.32;4.75;;;4.30;57.90;;;;;;5042930;28;20057;-72
2021/04/28 00:14:35;;;;;;;12.38;4.50;;;4.30;57.90;;;;;;5030899;28;20032;-70
2021/04/28 00:17:01;;;;;;;9.10;4.88;;;4.30;58.00;;;;;;5019548;28;20021;-71
2021/04/28 00:19:28;;;;;;;11.18;4.65;;;4.30;58.10;;;;;;5030805;28;20518;-70
2021/04/28 00:21:53;;;;;;;9.18;4.47;;;4.30;58.20;;;;;;5042629;28;20032;-73
2021/04/28 00:24:19;;;;;;;7.75;4.63;;;4.20;58.30;;;;;;5023720;28;20033;-71
2021/04/28 00:26:44;;;;;;;8.02;4.32;;;4.20;58.40;;;;;;5031763;28;20025;-70
2021/04/28 00:29:10;;;;;;;14.57;5.20;;;4.10;58.90;;;;;;5037190;28;20502;-70
2021/04/28 00:31:36;;;;;;;8.93;4.40;;;4.10;58.90;;;;;;5047361;28;20711;-73
2021/04/28 00:34:02;;;;;;;7.05;4.10;;;4.10;59.10;;;;;;5026148;28;20414;-70
2021/04/28 00:36:27;;;;;;;10.00;4.97;;;4.10;59.30;;;;;;5022208;28;20052;-71
2021/04/28 00:38:54;;;;;;;15.55;6.35;;;4.10;59.30;;;;;;5035533;28;20446;-71
2021/04/28 00:41:19;;;;;;;6.72;3.88;;;4.10;59.40;;;;;;5049404;28;20043;-72
2021/04/28 00:43:46;;;;;;;7.50;4.68;;;4.10;59.20;;;;;;5020590;28;20551;-71
2021/04/28 00:46:12;;;;;;;10.57;5.32;;;4.10;59.10;;;;;;5033505;28;20399;-72
2021/04/28 00:48:37;;;;;;;9.48;4.70;;;4.10;59.30;;;;;;5040504;28;20033;-71
2021/04/28 00:51:03;;;;;;;9.32;4.60;;;4.10;59.20;;;;;;5040805;28;20495;-71
2021/04/28 00:53:29;;;;;;;17.00;7.30;;;4.00;59.20;;;;;;5039154;28;20021;-71
2021/04/28 00:55:57;;;;;;;10.27;4.80;;;4.10;59.80;;;;;;5026060;28;20017;-71
2021/04/28 00:58:24;;;;;;;12.95;5.35;;;4.10;58.80;;;;;;5028299;28;20058;-74
2021/04/28 01:00:50;;;;;;;11.18;4.78;;;4.10;58.70;;;;;;5018929;28;20049;-71
2021/04/28 01:03:25;;;;;;;10.18;4.60;;;4.10;58.40;;;;;;5031407;28;20189;-70
2021/04/28 01:06:02;;;;;;;10.45;4.65;;;4.10;58.40;;;;;;5034437;28;20017;-72
2021/04/28 01:08:28;;;;;;;8.88;4.75;;;4.10;58.50;;;;;;5015880;28;20029;-71
2021/04/28 01:10:54;;;;;;;11.63;4.80;;;4.00;58.40;;;;;;5036410;28;20033;-72
2021/04/28 01:13:21;;;;;;;10.10;5.35;;;4.00;58.70;;;;;;5025394;28;20051;-72
2021/04/28 01:15:47;;;;;;;10.10;5.45;;;4.00;58.90;;;;;;5044800;28;20442;-71
2021/04/28 01:18:14;;;;;;;8.20;4.35;;;4.00;58.90;;;;;;5044381;28;20024;-71
2021/04/28 01:20:40;;;;;;;9.85;4.97;;;4.00;58.70;;;;;;5019522;28;20033;-75
2021/04/28 01:23:08;;;;;;;12.23;5.28;;;4.00;58.60;;;;;;5048952;28;20068;-72
2021/04/28 01:25:34;;;;;;;15.55;5.57;;;3.90;58.60;;;;;;5075354;22;20068;-71
2021/04/28 01:28:06;;;;;;;6.88;4.15;;;3.90;58.80;;;;;;5069945;28;20023;-71
2021/04/28 01:31:00;;;;;;;10.18;4.60;;;4.00;58.40;;;;;;5070891;28;20445;-72
2021/04/28 01:33:30;;;;;;;8.60;4.30;;;4.00;58.50;;;;;;5058043;28;20544;-71
2021/04/28 01:35:59;;;;;;;12.52;4.70;;;3.90;58.50;;;;;;5072512;28;20037;-71
2021/04/28 01:38:29;;;;;;;9.70;4.72;;;4.00;58.00;;;;;;5071132;28;20105;-71
2021/04/28 01:40:56;;;;;;;6.93;4.60;;;3.90;58.10;;;;;;5072119;28;20474;-71
2021/04/28 01:43:23;;;;;;;8.60;5.00;;;3.90;58.30;;;;;;5072228;28;20490;-71
2021/04/28 01:45:54;;;;;;;9.27;4.68;;;3.90;58.00;;;;;;5070909;28;20628;-71
2021/04/28 01:48:19;;;;;;;;;;;4.00;57.90;;;;;;5072730;28;20083;-72
2021/04/28 01:50:47;;;;;;;8.50;5.07;;;4.00;57.90;;;;;;5070756;28;20392;-71
2021/04/28 01:53:15;;;;;;;8.82;4.70;;;4.00;57.60;;;;;;5071898;28;20020;-71
2021/04/28 01:55:42;;;;;;;9.15;4.70;;;4.00;57.40;;;;;;5064250;28;20025;-71
2021/04/28 01:58:11;;;;;;;8.07;5.10;;;4.00;57.40;;;;;;5062800;28;20486;-71
2021/04/28 02:00:38;;;;;;;8.60;4.50;;;4.00;57.50;;;;;;5071988;28;20064;-72
2021/04/28 02:03:04;;;;;;;9.35;4.85;;;3.90;57.50;;;;;;5071978;28;20046;-71
2021/04/28 02:05:30;;;;;;;8.38;5.03;;;3.90;56.90;;;;;;5071875;28;20538;-71
2021/04/28 02:07:55;;;;;;;10.85;4.75;;;3.90;57.30;;;;;;5070805;28;20032;-71
2021/04/28 02:10:21;;;;;;;11.32;4.80;;;3.90;57.10;;;;;;5071837;28;20514;-71
2021/04/28 02:12:48;;;;;;;9.43;4.57;;;3.90;56.90;;;;;;5071938;28;20021;-71
2021/04/28 02:15:16;;;;;;;7.70;4.50;;;4.00;56.60;;;;;;5037316;28;20490;-71
2021/04/28 02:17:42;;;;;;;8.45;5.18;;;4.00;56.90;;;;;;5071622;28;20063;-71
2021/04/28 02:20:13;;;;;;;14.05;5.18;;;3.90;56.70;;;;;;5065688;28;20028;-72
2021/04/28 02:22:40;;;;;;;10.02;5.15;;;3.80;56.90;;;;;;5066777;28;20050;-71
2021/04/28 02:25:07;;;;;;;9.57;5.00;;;3.80;56.80;;;;;;5071371;28;20691;-71
2021/04/28 02:27:36;;;;;;;10.45;4.70;;;3.80;56.40;;;;;;5071301;28;20043;-71
2021/04/28 02:30:08;;;;;;;11.48;5.75;;;3.90;56.30;;;;;;5070391;28;20035;-71
2021/04/28 02:32:34;;;;;;;7.97;4.70;;;3.90;56.30;;;;;;5071900;28;20493;-71
2021/04/28 02:35:00;;;;;;;10.40;4.90;;;4.00;55.60;;;;;;5069916;28;20111;-72
2021/04/28 02:37:29;;;;;;;9.18;5.25;;;4.00;55.50;;;;;;5066199;28;20092;-72
2021/04/28 02:40:03;;;;;;;7.72;5.20;;;4.00;55.40;;;;;;5059376;28;20398;-71
2021/04/28 02:42:29;;;;;;;8.60;4.82;;;4.00;55.30;;;;;;5071512;28;20040;-72
2021/04/28 02:44:57;;;;;;;6.97;4.43;;;3.90;55.50;;;;;;5070258;28;20117;-72
2021/04/28 02:47:23;;;;;;;11.80;5.60;;;3.90;55.50;;;;;;5071215;28;20024;-72
2021/04/28 02:49:51;;;;;;;8.90;5.20;;;3.80;55.80;;;;;;5064332;28;20039;-72
2021/04/28 02:52:16;;;;;;;11.10;5.45;;;3.80;56.00;;;;;;5071599;28;20033;-72
2021/04/28 02:54:42;;;;;;;9.25;4.97;;;3.80;55.80;;;;;;5071389;28;20142;-72
2021/04/28 02:57:09;;;;;;;13.82;5.65;;;3.80;55.30;;;;;;5054397;28;20021;-72
2021/04/28 02:59:35;;;;;;;9.40;4.55;;;3.80;55.00;;;;;;5071382;28;20028;-71
2021/04/28 03:02:01;;;;;;;14.13;5.53;;;3.80;55.00;;;;;;5071384;28;20020;-71
2021/04/28 03:04:27;;;;;;;10.68;5.53;;;3.80;55.10;;;;;;5057521;28;20071;-73
2021/04/28 03:06:52;;;;;;;9.77;5.38;;;3.90;55.00;;;;;;5071186;28;20029;-73
2021/04/28 03:09:18;;;;;;;12.07;5.40;;;3.90;55.00;;;;;;5059476;28;20027;-72
2021/04/28 03:11:44;;;;;;;11.20;5.18;;;3.90;54.90;;;;;;5075350;28;20025;-72
2021/04/28 03:14:11;;;;;;;7.43;4.68;;;3.90;54.80;;;;;;5063855;28;20516;-72
2021/04/28 03:16:37;;;;;;;10.15;5.55;;;3.80;55.10;;;;;;5069773;28;20509;-72
2021/04/28 03:19:05;;;;;;;10.48;4.97;;;3.70;55.20;;;;;;5074995;28;20028;-72
2021/04/28 03:21:35;;;;;;;8.32;5.13;;;3.70;55.70;;;;;;5075152;28;20506;-72
2021/04/28 03:24:01;;;;;;;12.90;5.75;;;3.60;55.80;;;;;;5075174;28;20078;-72
2021/04/28 03:26:28;;;;;;;12.68;5.25;;;3.50;56.30;;;;;;5060972;28;20032;-72
2021/04/28 03:28:54;;;;;;;7.45;5.05;;;3.70;55.70;;;;;;5071618;28;20031;-72
2021/04/28 03:31:19;;;;;;;331.52;163.48;;;3.60;55.80;;;;;;5059122;28;20394;-70
2021/04/28 03:33:45;;;;;;;21.27;10.15;;;3.50;57.30;;;;;;5074837;28;20028;-71
2021/04/28 03:36:11;;;;;;;8.65;5.57;;;3.40;57.10;;;;;;5073368;28;20048;-72
2021/04/28 03:38:36;;;;;;;11.15;4.95;;;3.30;57.00;;;;;;5073673;28;20017;-72
2021/04/28 03:41:02;;;;;;;10.98;5.72;;;3.30;57.50;;;;;;5074604;28;20044;-72
2021/04/28 03:43:28;;;;;;;9.82;5.13;;;3.30;58.20;;;;;;5074454;28;20078;-71
2021/04/28 03:45:56;;;;;;;9.75;5.28;;;3.20;58.10;;;;;;5073217;28;20028;-72
2021/04/28 03:48:24;;;;;;;9.43;5.63;;;3.20;57.70;;;;;;5074296;28;20367;-71
2021/04/28 03:50:50;;;;;;;7.70;5.05;;;3.20;57.60;;;;;;5067418;28;20039;-71
2021/04/28 03:53:15;;;;;;;11.52;5.45;;;3.20;57.60;;;;;;5074402;28;20044;-72
2021/04/28 03:55:41;;;;;;;9.07;4.97;;;3.20;58.60;;;;;;5067039;28;20013;-71
2021/04/28 03:58:06;;;;;;;8.77;5.68;;;3.20;58.90;;;;;;5065103;28;20021;-71
2021/04/28 04:00:32;;;;;;;8.52;5.55;;;3.10;59.70;;;;;;5074194;28;20104;-70
2021/04/28 04:02:58;;;;;;;9.82;5.72;;;3.10;60.70;;;;;;5074377;28;20470;-72
2021/04/28 04:05:24;;;;;;;13.18;5.60;;;3.00;61.20;;;;;;5074390;28;20044;-73
2021/04/28 04:07:50;;;;;;;13.60;5.57;;;3.10;61.80;;;;;;5072818;28;20075;-72
2021/04/28 04:10:16;;;;;;;10.60;6.00;;;3.10;62.00;;;;;;5073111;28;20059;-71
2021/04/28 04:12:42;;;;;;;10.98;6.47;;;3.00;62.20;;;;;;5074330;28;20024;-71
2021/04/28 04:15:08;;;;;;;12.13;6.35;;;3.10;62.40;;;;;;5057197;28;20112;-71
2021/04/28 04:17:34;;;;;;;11.57;6.45;;;3.20;62.90;;;;;;5073510;28;20024;-70
2021/04/28 04:19:59;;;;;;;10.48;5.90;;;3.20;63.60;;;;;;5073385;28;20394;-70
2021/04/28 04:22:25;;;;;;;11.60;5.65;;;3.40;63.40;;;;;;5073372;28;20021;-70
2021/04/28 04:24:51;;;;;;;12.20;6.32;;;3.50;61.60;;;;;;5069298;28;20091;-70
2021/04/28 04:27:17;;;;;;;11.10;5.95;;;3.70;60.20;;;;;;5072288;28;20028;-71
2021/04/28 04:29:42;;;;;;;10.43;5.88;;;3.90;56.50;;;;;;5073737;28;20428;-71
2021/04/28 04:32:08;;;;;;;8.70;5.20;;;4.60;54.40;;;;;;5072690;28;20037;-73
2021/04/28 04:34:33;;;;;;;10.02;5.80;;;5.30;51.60;;;;;;5073988;28;20513;-72
2021/04/28 04:36:59;;;;;;;13.23;5.40;;;6.30;49.80;;;;;;5056408;28;20025;-71
2021/04/28 04:39:25;;;;;;;10.55;5.20;;;;;;;;;;5053999;28;20641;-72
2021/04/28 04:41:53;;;;;;;12.07;6.30;;;8.20;44.40;;;;;;5062316;28;20390;-71
2021/04/28 04:44:18;;;;;;;12.70;5.63;;;9.20;40.90;;;;;;5073600;28;20025;-72
2021/04/28 04:46:44;;;;;;;11.00;5.85;;;9.40;39.60;;;;;;5073637;28;20082;-72
2021/04/28 04:49:10;;;;;;;10.07;5.40;;;9.70;38.90;;;;;;5073613;28;20020;-72
2021/04/28 04:51:39;;;;;;;13.77;7.10;;;10.10;38.30;;;;;;5073559;28;20025;-72
2021/04/28 04:54:05;;;;;;;12.15;6.03;;;10.40;38.20;;;;;;5073291;28;20029;-72
2021/04/28 04:56:30;;;;;;;14.00;6.55;;;11.00;38.30;;;;;;5059276;28;20475;-72
2021/04/28 04:58:56;;;;;;;13.05;5.65;;;11.00;36.30;;;;;;5069832;28;20024;-73
2021/04/28 05:01:21;;;;;;;9.55;5.97;;;10.90;36.20;;;;;;5057994;28;20100;-73
2021/04/28 05:03:47;;;;;;;12.10;5.85;;;11.10;36.70;;;;;;5073119;28;20044;-73
2021/04/28 05:06:12;;;;;;;15.55;6.18;;;11.40;35.00;;;;;;5072814;28;20036;-72
2021/04/28 05:08:38;;;;;;;8.30;5.32;;;11.90;34.20;;;;;;5071799;28;20033;-72
2021/04/28 05:11:03;;;;;;;10.27;6.03;;;13.00;32.70;;;;;;5071790;28;20024;-73
2021/04/28 05:13:29;;;;;;;12.05;6.40;;;13.90;31.00;;;;;;5066053;28;20036;-73
2021/04/28 05:15:57;;;;;;;11.90;6.65;;;14.60;29.90;;;;;;5061669;28;20086;-72
2021/04/28 05:18:22;;;;;;;11.65;6.28;;;15.10;28.10;;;;;;5071403;28;20044;-72
2021/04/28 05:20:48;;;;;;;10.90;7.00;;;15.50;27.90;;;;;;5071851;28;20505;-73
2021/04/28 05:23:16;;;;;;;13.60;6.90;;;15.40;27.60;;;;;;5072948;28;20432;-73
2021/04/28 05:25:41;;;;;;;15.23;7.50;;;14.50;29.00;;;;;;5063908;28;20021;-72
2021/04/28 05:28:07;;;;;;;10.40;7.05;;;15.00;28.30;;;;;;5063096;28;20055;-73
2021/04/28 05:30:32;;;;;;;13.70;8.15;;;15.70;28.50;;;;;;5066486;28;20482;-73
2021/04/28 05:32:58;;;;;;;15.88;8.10;;;17.00;26.30;;;;;;5070025;28;20037;-73
2021/04/28 05:35:24;;;;;;;15.38;7.18;;;18.20;25.00;;;;;;5066367;28;20017;-72
2021/04/28 05:37:50;;;;;;;10.50;6.53;;;18.50;24.30;;;;;;5053205;28;20017;-68
2021/04/28 05:40:19;;;;;;;13.07;6.70;;;19.00;24.40;;;;;;5064159;28;20077;-67
2021/04/28 05:42:45;;;;;;;10.18;6.40;;;19.50;22.90;;;;;;5072062;28;20035;-67
2021/04/28 05:45:13;;;;;;;10.80;6.47;;;19.10;22.90;;;;;;5061324;28;20020;-69
2021/04/28 05:47:39;;;;;;;11.38;6.95;;;18.50;23.30;;;;;;5063779;28;20462;-68
2021/04/28 05:50:15;;;;;;;11.35;6.68;;;18.70;23.30;;;;;;5120705;27;20350;-69
2021/04/28 05:52:40;;;;;;;12.10;6.63;;;17.60;23.60;;;;;;5112247;28;20534;-70
2021/04/28 05:55:08;;;;;;;14.45;6.68;;;17.60;23.70;;;;;;5126321;27;20027;-69
2021/04/28 05:57:34;;;;;;;14.90;7.00;;;17.20;24.30;;;;;;5115276;27;20047;-69
2021/04/28 06:00:01;;;;;;;10.27;6.10;;;17.60;23.90;;;;;;5119661;27;20019;-69
2021/04/28 06:02:26;;;;;;;63.83;41.15;;;17.20;24.40;;;;;;5121800;28;20106;-68
2021/04/28 06:04:53;;;;;;;104.65;61.40;;;17.20;25.00;;;;;;5112927;28;20111;-67
2021/04/28 06:07:18;;;;;;;18.50;9.77;;;17.10;25.90;;;;;;5124804;27;20020;-69
2021/04/28 06:09:44;;;;;;;12.63;6.78;;;17.60;24.40;;;;;;5108399;28;20035;-68
2021/04/28 06:12:09;;;;;;;14.20;7.28;;;17.80;24.20;;;;;;5117881;28;20024;-68
2021/04/28 06:14:35;;;;;;;16.73;11.55;;;18.00;24.00;;;;;;5124076;28;20072;-68
2021/04/28 06:17:05;;;;;;;10.75;7.80;;;17.80;24.20;;;;;;5114512;27;20035;-68
2021/04/28 06:19:31;;;;;;;17.95;8.52;;;16.80;24.90;;;;;;5123610;27;20380;-68
2021/04/28 06:21:56;;;;;;;11.80;6.57;;;17.30;25.00;;;;;;5118571;28;20044;-69
2021/04/28 06:24:22;;;;;;;14.32;9.07;;;18.10;24.40;;;;;;5116363;28;20030;-69
2021/04/28 06:26:47;;;;;;;12.57;8.05;;;19.50;22.30;;;;;;5125447;27;20141;-68
2021/04/28 06:29:13;;;;;;;11.05;6.22;;;19.30;22.20;;;;;;5112317;28;20027;-68
2021/04/28 06:31:38;;;;;;;11.75;6.35;;;18.60;23.00;;;;;;5122202;28;20049;-68
2021/04/28 06:34:04;;;;;;;11.07;6.55;;;18.90;22.80;;;;;;5119295;28;20024;-68
2021/04/28 06:36:30;;;;;;;11.48;6.78;;;18.20;23.40;;;;;;5113203;27;20024;-70
2021/04/28 06:38:55;;;;;;;11.27;7.18;;;17.70;24.20;;;;;;5109582;28;20015;-70
2021/04/28 06:41:21;;;;;;;20.00;8.57;;;18.40;24.00;;;;;;5113240;27;20054;-69
2021/04/28 06:43:46;;;;;;;12.10;8.00;;;18.70;24.30;;;;;;5119622;28;20020;-69
2021/04/28 06:46:12;;;;;;;10.60;6.22;;;18.00;24.30;;;;;;5107305;28;20485;-73
2021/04/28 06:48:38;;;;;;;11.57;7.03;;;17.50;24.60;;;;;;5122265;28;20039;-69
2021/04/28 06:51:04;;;;;;;13.00;6.90;;;18.00;24.30;;;;;;5111749;27;20027;-71
2021/04/28 06:53:32;;;;;;;12.15;7.60;;;18.10;24.50;;;;;;5122862;27;20543;-71
2021/04/28 06:55:58;;;;;;;13.73;8.07;;;18.00;24.20;;;;;;5118375;27;20023;-72
2021/04/28 06:58:23;;;;;;;13.38;7.03;;;18.10;24.20;;;;;;5115599;28;20405;-73
2021/04/28 07:00:50;;;;;;;13.90;7.38;;;19.20;23.30;;;;;;5115632;28;20394;-71
2021/04/28 07:03:16;;;;;;;13.23;7.15;;;18.50;24.10;;;;;;5093261;28;20470;-69
2021/04/28 07:05:42;;;;;;;17.98;8.30;;;18.60;24.10;;;;;;5102268;28;20031;-68
2021/04/28 07:08:07;;;;;;;12.10;7.50;;;19.70;23.10;;;;;;5102517;28;20020;-70
2021/04/28 07:10:33;;;;;;;16.92;7.82;;;19.80;23.00;;;;;;5109569;28;20507;-70
2021/04/28 07:12:59;;;;;;;13.18;7.72;;;19.50;23.90;;;;;;5098964;28;20020;-70
2021/04/28 07:15:24;;;;;;;18.23;10.35;;;20.10;23.00;;;;;;5112902;28;20023;-72
2021/04/28 07:17:52;;;;;;;14.10;8.80;;;20.70;24.00;;;;;;5096181;28;20488;-69
2021/04/28 07:20:18;;;;;;;10.82;7.50;;;20.80;23.10;;;;;;5100876;28;20047;-67
2021/04/28 07:22:43;;;;;;;159.30;133.40;;;20.80;23.20;;;;;;5110450;28;20127;-69
2021/04/28 07:25:11;;;;;;;19.73;13.18;;;19.90;24.30;;;;;;5114158;22;20070;-70
2021/04/28 07:27:37;;;;;;;18.70;12.70;;;20.60;23.60;;;;;;5056324;28;20026;-70
2021/04/28 07:30:04;;;;;;;15.27;10.23;;;20.60;23.60;;;;;;5083650;28;20469;-70
2021/04/28 07:32:30;;;;;;;17.38;11.10;;;20.40;24.20;;;;;;5079501;28;20126;-71
2021/04/28 07:34:56;;;;;;;15.75;10.00;;;19.40;26.40;;;;;;5091507;28;20034;-71
2021/04/28 07:37:21;;;;;;;17.65;8.20;;;19.70;25.20;;;;;;5093920;28;20103;-69
2021/04/28 07:39:47;;;;;;;13.80;9.15;;;20.20;25.00;;;;;;5069524;28;20033;-69
2021/04/28 07:42:12;;;;;;;16.55;9.95;;;20.90;24.00;;;;;;5075497;28;20024;-69
2021/04/28 07:44:38;;;;;;;19.90;12.77;;;20.90;24.20;;;;;;5100538;28;20751;-67
2021/04/28 07:47:03;;;;;;;17.77;10.05;;;20.10;25.50;;;;;;5077173;28;20027;-69
2021/04/28 07:49:29;;;;;;;17.55;9.57;;;20.20;25.50;;;;;;5108177;28;20035;-73
2021/04/28 07:51:54;;;;;;;15.95;9.75;;;19.50;25.50;;;;;;5064910;28;20028;-70
2021/04/28 07:54:21;;;;;;;19.42;10.05;;;18.20;27.90;;;;;;5087173;28;20024;-73
2021/04/28 07:56:48;;;;;;;13.15;9.65;;;19.30;27.30;;;;;;5096883;28;20016;-69
2021/04/28 07:59:14;;;;;;;17.02;9.52;;;20.30;25.60;;;;;;5064698;28;20459;-70
2021/04/28 08:01:40;;;;;;;18.73;10.45;;;19.90;26.70;;;;;;5106029;28;20119;-69
2021/04/28 08:04:06;;;;;;;13.85;9.93;;;20.70;25.00;;;;;;5085898;28;20058;-70
2021/04/28 08:06:33;;;;;;;15.15;10.02;;;21.20;25.00;;;;;;5098512;28;20435;-70
2021/04/28 08:08:58;;;;;;;14.30;9.88;;;20.30;25.70;;;;;;5095105;28;20020;-70
2021/04/28 08:11:25;;;;;;;15.95;10.23;;;20.00;26.30;;;;;;5092329;28;20102;-69
2021/04/28 08:13:50;;;;;;;15.93;9.80;;;20.60;25.60;;;;;;5099954;28;20016;-69
2021/04/28 08:16:16;;;;;;;21.08;12.65;;;19.60;26.90;;;;;;5081508;28;20023;-69
2021/04/28 08:18:42;;;;;;;16.52;11.27;;;20.50;27.00;;;;;;5100288;28;20393;-71
2021/04/28 08:21:08;;;;;;;24.25;18.67;;;21.90;25.40;;;;;;5095752;28;20031;-74
2021/04/28 08:23:41;;;;;;;67.47;34.22;;;21.90;24.70;;;;;;5107253;28;20024;-72
2021/04/28 08:26:07;;;;;;;30.88;17.55;;;21.60;25.20;;;;;;5099162;28;20044;-75
2021/04/28 08:28:38;;;;;;;21.00;11.82;;;20.40;26.50;;;;;;5089420;28;20028;-72
2021/04/28 08:31:04;;;;;;;;;;;20.60;26.10;;;;;;5076971;28;20050;-71
2021/04/28 08:33:29;;;;;;;25.27;15.00;;;20.00;27.30;;;;;;5083172;28;20188;-74
2021/04/28 08:35:57;;;;;;;15.75;10.52;;;20.30;27.20;;;;;;5070767;28;20036;-72
2021/04/28 08:38:23;;;;;;;16.15;10.93;;;19.40;27.80;;;;;;5065455;28;20551;-73
2021/04/28 08:40:48;;;;;;;38.83;21.75;;;19.70;28.10;;;;;;5089258;28;20028;-72
2021/04/28 08:43:14;;;;;;;13.73;9.90;;;20.00;27.60;;;;;;5064648;28;20073;-71
2021/04/28 08:45:39;;;;;;;13.48;10.02;;;19.70;28.00;;;;;;5099703;28;20034;-71
2021/04/28 08:48:05;;;;;;;16.45;10.32;;;19.10;28.40;;;;;;5083604;28;20020;-69
2021/04/28 08:50:31;;;;;;;17.15;11.35;;;19.10;29.10;;;;;;5085666;28;20028;-71
2021/04/28 08:52:59;;;;;;;13.98;10.77;;;19.90;28.50;;;;;;5091020;28;20028;-71
2021/04/28 08:55:25;;;;;;;13.43;10.57;;;19.90;27.40;;;;;;5097492;28;20022;-72
2021/04/28 08:57:52;;;;;;;22.33;9.75;;;20.90;26.60;;;;;;5085322;28;20020;-72
2021/04/28 09:00:18;;;;;;;15.77;10.15;;;20.60;27.00;;;;;;5092160;28;20016;-72
2021/04/28 09:02:52;;;;;;;15.45;10.90;;;20.90;26.10;;;;;;5090125;28;20028;-72
2021/04/28 09:05:21;;;;;;;21.65;13.45;;;20.80;26.50;;;;;;5080047;28;20020;-70
2021/04/28 09:07:47;;;;;;;16.30;11.90;;;21.20;26.80;;;;;;5101266;28;20470;-70
2021/04/28 09:10:20;;;;;;;17.27;10.90;;;21.70;26.10;;;;;;5103994;28;20026;-70
2021/04/28 09:12:57;;;;;;;16.92;10.32;;;21.70;25.30;;;;;;5077862;28;20024;-71
2021/04/28 09:15:46;;;;;;;28.30;15.82;;;21.00;26.10;;;;;;5081479;28;20381;-71
2021/04/28 09:18:16;;;;;;;17.80;10.15;;;20.10;27.40;;;;;;5100340;28;20543;-72
2021/04/28 09:20:50;;;;;;;14.63;9.70;;;20.40;27.40;;;;;;5108050;28;20036;-71
2021/04/28 09:23:28;;;;;;;24.90;13.95;;;19.70;27.50;;;;;;5079404;28;20055;-70
2021/04/28 09:25:56;;;;;;;12.52;9.05;;;19.50;28.70;;;;;;5084568;28;20027;-72
2021/04/28 09:28:32;;;;;;;16.10;10.43;;;19.50;28.60;;;;;;5104604;28;20024;-72
2021/04/28 09:31:07;;;;;;;13.45;10.20;;;20.00;28.40;;;;;;5095362;28;20020;-71
2021/04/28 09:33:44;;;;;;;14.90;10.73;;;20.40;27.40;;;;;;5087694;28;20020;-71
2021/04/28 09:36:12;;;;;;;17.55;10.65;;;19.60;29.10;;;;;;5102931;28;20024;-72
2021/04/28 09:39:08;;;;;;;14.43;10.80;;;19.90;28.40;;;;;;5075216;28;20021;-71
2021/04/28 09:41:43;;;;;;;15.75;10.32;;;20.00;28.70;;;;;;5046949;28;20128;-73
2021/04/28 09:44:20;;;;;;;18.80;12.95;;;20.20;28.40;;;;;;5091858;28;20024;-73
2021/04/28 09:47:08;;;;;;;14.73;10.40;;;19.90;28.30;;;;;;5107853;28;20027;-73
2021/04/28 09:49:50;;;;;;;14.48;10.30;;;19.70;28.90;;;;;;5084220;28;20020;-72
2021/04/28 09:52:40;;;;;;;22.33;12.55;;;19.80;29.10;;;;;;5099619;28;20021;-73
2021/04/28 09:55:14;;;;;;;18.90;10.35;;;19.70;29.40;;;;;;5108418;28;20020;-72
2021/04/28 09:57:48;;;;;;;24.85;14.27;;;19.50;28.50;;;;;;5091247;28;20043;-72
2021/04/28 10:00:22;;;;;;;15.68;9.90;;;20.00;30.00;;;;;;5085870;28;20073;-72
2021/04/28 10:03:00;;;;;;;14.65;10.15;;;19.80;29.10;;;;;;5095365;28;20371;-72
2021/04/28 10:05:42;;;;;;;17.35;10.05;;;19.50;29.70;;;;;;5064058;28;20024;-72
2021/04/28 10:08:16;;;;;;;14.18;9.98;;;19.50;29.60;;;;;;5089720;28;20028;-73
2021/04/28 10:10:44;;;;;;;19.10;11.70;;;19.10;30.10;;;;;;5084678;28;20382;-72
2021/04/28 10:13:09;;;;;;;15.00;11.30;;;19.20;31.30;;;;;;5107813;28;20023;-72
2021/04/28 10:15:38;;;;;;;12.13;10.13;;;19.00;30.70;;;;;;5079644;28;20016;-73
2021/04/28 10:18:06;;;;;;;18.00;11.30;;;18.20;31.40;;;;;;5082703;28;20067;-72
2021/04/28 10:20:40;;;;;;;19.45;10.93;;;17.50;33.50;;;;;;5090641;28;20024;-73
2021/04/28 10:23:10;;;;;;;16.23;10.38;;;17.10;34.40;;;;;;5108159;28;20031;-72
2021/04/28 10:25:37;;;;;;;13.18;10.30;;;17.40;34.00;;;;;;5097890;28;20119;-72
2021/04/28 10:28:09;;;;;;;14.35;10.23;;;17.10;33.50;;;;;;5082758;28;20035;-72
2021/04/28 10:30:36;;;;;;;16.40;10.38;;;17.20;34.30;;;;;;5106269;28;20039;-72
2021/04/28 10:33:07;;;;;;;13.45;10.20;;;17.20;34.90;;;;;;5059742;28;20035;-72
2021/04/28 10:35:33;;;;;;;15.98;9.57;;;17.00;33.80;;;;;;5107087;28;20043;-69
2021/04/28 10:37:59;;;;;;;15.07;9.80;;;17.00;34.00;;;;;;5104485;28;20030;-70
2021/04/28 10:40:27;;;;;;;16.65;9.48;;;17.00;34.90;;;;;;5083650;28;20028;-70
2021/04/28 10:42:53;;;;;;;11.93;8.77;;;17.00;35.10;;;;;;5095584;28;20063;-70
2021/04/28 10:45:19;;;;;;;195.80;128.43;;;17.00;34.70;;;;;;5092676;28;20020;-72
2021/04/28 10:47:46;;;;;;;15.20;10.43;;;17.00;36.20;;;;;;5102408;28;20023;-70
2021/04/28 10:50:46;;;;;;;16.30;9.52;;;17.20;35.10;;;;;;5103365;28;20408;-69
2021/04/28 10:53:18;;;;;;;19.92;10.27;;;16.90;34.30;;;;;;5111597;28;20393;-69
2021/04/28 10:55:55;;;;;;;20.35;10.68;;;16.90;35.10;;;;;;5102190;28;20094;-69
2021/04/28 10:58:24;;;;;;;16.58;10.00;;;16.60;35.90;;;;;;5101862;28;20020;-70
2021/04/28 11:01:05;;;;;;;14.00;9.70;;;16.60;36.60;;;;;;5092815;28;20035;-70
2021/04/28 11:03:33;;;;;;;24.73;15.23;;;16.90;36.50;;;;;;5100587;28;20102;-70
2021/04/28 11:06:26;;;;;;;14.20;9.63;;;17.00;36.20;;;;;;5085970;28;20035;-69
2021/04/28 11:09:02;;;;;;;15.82;8.55;;;16.80;35.40;;;;;;5088248;28;20116;-70
2021/04/28 11:11:48;;;;;;;14.65;9.25;;;16.50;35.50;;;;;;5094198;28;20016;-71
2021/04/28 11:16:57;;;;;;;15.25;10.77;;;16.50;36.30;;;;;;5109448;28;20024;-71
2021/04/28 11:19:28;;;;;;;15.85;9.15;;;16.70;36.30;;;;;;5083655;28;20012;-71
2021/04/28 11:22:03;;;;;;;12.85;8.32;;;16.70;36.20;;;;;;5087241;28;20394;-70
2021/04/28 11:25:15;;;;;;;19.88;9.48;;;16.80;36.10;;;;;;5094004;28;20044;-71
2021/04/28 11:28:01;;;;;;;17.23;10.60;;;16.80;35.70;;;;;;5088124;28;20169;-73
2021/04/28 11:30:39;;;;;;;12.23;8.77;;;17.00;36.80;;;;;;5102538;28;20031;-73
2021/04/28 11:33:11;;;;;;;14.20;9.10;;;17.10;36.40;;;;;;5079314;28;20107;-70
2021/04/28 11:35:42;;;;;;;13.98;8.63;;;17.10;35.00;;;;;;5107463;28;20117;-71
2021/04/28 11:38:17;;;;;;;15.10;10.75;;;16.90;35.40;;;;;;5086468;28;20038;-72
2021/04/28 11:41:01;;;;;;;14.70;9.85;;;16.90;36.10;;;;;;5097692;28;20495;-71
2021/04/28 11:43:31;;;;;;;14.30;9.43;;;16.80;35.20;;;;;;5084771;28;20117;-72
2021/04/28 11:46:16;;;;;;;16.15;10.20;;;16.90;35.20;;;;;;5086124;28;20019;-72
2021/04/28 11:48:44;;;;;;;11.88;8.18;;;17.00;35.00;;;;;;5109748;28;20036;-72
2021/04/28 11:51:13;;;;;;;13.82;8.35;;;17.00;34.90;;;;;;5079554;28;20028;-72
2021/04/28 11:53:43;;;;;;;10.25;7.50;;;17.00;34.80;;;;;;5112728;28;20016;-71
2021/04/28 11:56:08;;;;;;;11.38;8.35;;;16.90;35.50;;;;;;5094673;28;20099;-71
2021/04/28 11:58:34;;;;;;;11.23;8.20;;;17.00;35.50;;;;;;5089393;28;20060;-70
2021/04/28 12:01:13;;;;;;;14.25;8.40;;;17.00;35.20;;;;;;5098707;28;20020;-72
2021/04/28 12:03:56;;;;;;;11.80;7.22;;;17.00;34.80;;;;;;5107187;28;20024;-70
2021/04/28 12:06:33;;;;;;;9.52;7.07;;;17.00;35.00;;;;;;5073878;28;20059;-72
2021/04/28 12:09:20;;;;;;;23.73;13.60;;;17.00;34.70;;;;;;5075771;28;20034;-72
2021/04/28 12:11:48;;;;;;;12.20;7.25;;;17.00;36.10;;;;;;5095371;28;20378;-72
2021/04/28 12:14:23;;;;;;;16.25;9.43;;;17.20;33.60;;;;;;5102545;28;20020;-71
2021/04/28 12:16:54;;;;;;;13.35;9.30;;;17.20;35.50;;;;;;5100403;28;20093;-71
2021/04/28 12:19:20;;;;;;;11.30;7.57;;;17.30;34.20;;;;;;5109148;28;20027;-71
2021/04/28 12:21:55;;;;;;;24.80;12.13;;;17.50;34.20;;;;;;5074097;28;20269;-72
2021/04/28 12:24:25;;;;;;;11.70;6.63;;;17.60;33.90;;;;;;5105901;28;20038;-70
2021/04/28 12:27:20;;;;;;;14.35;7.80;;;17.60;33.20;;;;;;5095861;28;20036;-71
2021/04/28 12:29:50;;;;;;;10.38;7.45;;;17.50;32.80;;;;;;5104960;28;20063;-72
2021/04/28 12:32:18;;;;;;;12.90;8.13;;;17.40;33.20;;;;;;5104784;28;20562;-72
2021/04/28 12:34:45;;;;;;;13.25;8.13;;;17.40;32.80;;;;;;5096804;28;20028;-71
2021/04/28 12:37:20;;;;;;;15.27;8.43;;;17.30;33.30;;;;;;5091154;28;20050;-71
2021/04/28 12:39:54;;;;;;;18.35;11.82;;;17.40;33.40;;;;;;5100632;28;20027;-71
2021/04/28 12:42:26;;;;;;;16.52;7.68;;;17.30;34.40;;;;;;5099909;28;20024;-71
2021/04/28 12:44:52;;;;;;;12.57;7.18;;;17.40;33.10;;;;;;5109558;28;20024;-71
2021/04/28 12:47:23;;;;;;;10.02;6.90;;;17.50;32.80;;;;;;5096370;28;20077;-71
2021/04/28 12:50:11;;;;;;;11.47;6.77;;;17.50;32.30;;;;;;5086075;28;20089;-71
2021/04/28 12:52:42;;;;;;;14.75;7.30;;;17.50;32.90;;;;;;5072895;28;20028;-71